Saint Catharines Airport, Ontario

12:37 PM EDT on September 16, 2014 (GMT -0400)
The Fruit Shack | Change Station
CLOSE
Current Station
Personal Weather Station
Location: Niagara-on-the-Lake, ONTARIO
Elevation: 302 ft
Nearby Weather Stations

Elev 302 ft 43.21 °N, 79.13 °W | Updated 3 minutes ago

Partly Cloudy
Partly Cloudy
63.2 °F
Feels Like 63.2 °F
N
5.0
Wind Variable Wind from NNE
Gusts 8.0 mph

Today
High -- | Low -- °F
--% Chance of Precip.
Yesterday
High -- | Low -- °F
Precip. -- in
6:57 AM 7:24 PM
Last Quarter, 44% visible
Pressure 30.09 in
Visibility 15.0 miles
Clouds Few 2000 ft
Few 25000 ft
Dew Point 48 °F
Humidity 59%
Rainfall 0.00 in
Snow Depth Not available.
UV 6 out of 12
Pollen Not available.
Air Quality Not available.
Flu Activity Not available.
METAR CYSN 161600Z 32007KT 15SM FEW020 FEW250 17/09 A3009 RMK CU1CI1 CU TR CI TR VIA CYXU SLP189 DENSITY ALT 400FT

More Conditions Fewer Conditions

Pressure 30.09 in
Visibility 15.0 miles
Clouds Few 2000 ft
Few 25000 ft
Dew Point 48 °F
Humidity 59%
Rainfall 0.00 in
Snow Depth Not available.
UV 6 out of 12
Pollen Not available.
Air Quality Not available.
Flu Activity Not available.
METAR CYSN 161600Z 32007KT 15SM FEW020 FEW250 17/09 A3009 RMK CU1CI1 CU TR CI TR VIA CYXU SLP189 DENSITY ALT 400FT

More Conditions Fewer Conditions

10-Day Weather Forecast

Almanac

Astronomy

Sep. 16, 2014 Rise Set
Actual Time 6:57 AM EDT 7:24 PM EDT
Civil Twilight 6:28 AM EDT 7:53 PM EDT
Nautical Twilight 5:55 AM EDT 8:27 PM EDT
Astronomical Twilight 5:20 AM EDT 9:01 PM EDT
Moon No Moon Rise 2:54 PM EDT
Length of Visible Light 13h 24m
Length of Day
12h 27m
Tomorrow will be 2m 55s shorter.
Last Quarter, 44% of the Moon is Illuminated
Today
Last Quarter
Sep 24
New
Oct 1
First Quarter
Oct 8
Full
Oct 15
Last Quarter

Today's Extremes

Country Highs Country Lows

Community

WunderPhotos

Upload Photos

1,753,824 photos uploaded!

Nearby

Snow Depth

Not available.

Earthquake Activity

City Distance Mag. Time & Date
No recent earthquake activity has been reported nearby.
Minimum magnitude displayed is 2.5.

Coastal Water Temperatures

Place Temperature
No Stations Reporting

Nearby Weather Stations